Time,TemperatureF,DewpointF,PressureIn,WindDirection,WindDirectionDegrees,WindSpeedMPH,WindSpeedGustMPH,Humidity,HourlyPrecipIn,Conditions,Clouds,dailyrainin,SoftwareType,DateUTC
2013-01-19 00:05:00,26.8,24.0,29.83,North,-999,1.0,2.0,90,0.00,,,0.00,weatherlink.com 1.10,2013-01-19 06:05:00,
2013-01-19 00:19:00,26.6,24.0,29.83,North,-999,2.0,3.0,90,0.00,,,0.00,weatherlink.com 1.10,2013-01-19 06:19:00,
2013-01-19 00:35:00,25.8,23.0,29.83,North,-999,2.0,4.0,90,0.00,,,0.00,weatherlink.com 1.10,2013-01-19 06:35:00,
2013-01-19 00:51:00,25.5,23.0,29.81,North,-999,0.0,4.0,91,0.00,,,0.00,weatherlink.com 1.10,2013-01-19 06:51:00,
2013-01-19 01:06:00,25.5,23.0,29.81,North,-999,1.0,1.0,91,0.00,,,0.00,weatherlink.com 1.10,2013-01-19 07:06:00,
2013-01-19 01:20:00,25.5,24.0,29.81,North,-999,1.0,2.0,92,0.00,,,0.00,weatherlink.com 1.10,2013-01-19 07:20:00,
2013-01-19 01:37:00,25.4,23.0,29.80,North,-999,3.0,4.0,92,0.00,,,0.00,weatherlink.com 1.10,2013-01-19 07:37:00,
2013-01-19 01:51:00,25.7,24.0,29.80,North,-999,2.0,2.0,92,0.00,,,0.00,weatherlink.com 1.10,2013-01-19 07:51:00,
2013-01-19 02:06:00,25.7,24.0,29.80,North,-999,1.0,2.0,92,0.00,,,0.00,weatherlink.com 1.10,2013-01-19 08:06:00,
2013-01-19 02:21:00,25.5,24.0,29.80,North,-999,2.0,3.0,92,0.00,,,0.00,weatherlink.com 1.10,2013-01-19 08:21:00,
2013-01-19 02:37:00,25.4,23.0,29.79,North,-999,2.0,5.0,92,0.00,,,0.00,weatherlink.com 1.10,2013-01-19 08:37:00,
2013-01-19 02:53:00,25.7,24.0,29.77,North,-999,3.0,6.0,92,0.00,,,0.00,weatherlink.com 1.10,2013-01-19 08:53:00,
2013-01-19 03:06:00,25.4,23.0,29.78,North,-999,4.0,6.0,92,0.00,,,0.00,weatherlink.com 1.10,2013-01-19 09:06:00,
2013-01-19 03:21:00,25.1,23.0,29.78,North,-999,4.0,6.0,92,0.00,,,0.00,weatherlink.com 1.10,2013-01-19 09:21:00,
2013-01-19 03:36:00,25.0,23.0,29.77,North,-999,4.0,11.0,92,0.00,,,0.00,weatherlink.com 1.10,2013-01-19 09:36:00,
2013-01-19 04:06:00,25.4,23.0,29.73,North,-999,5.0,7.0,92,0.00,,,0.00,weatherlink.com 1.10,2013-01-19 10:06:00,
2013-01-19 04:21:00,25.9,24.0,29.75,North,-999,3.0,8.0,93,0.00,,,0.00,weatherlink.com 1.10,2013-01-19 10:21:00,
2013-01-19 04:36:00,25.7,24.0,29.77,North,-999,3.0,4.0,92,0.00,,,0.00,weatherlink.com 1.10,2013-01-19 10:36:00,
2013-01-19 04:51:00,26.1,24.0,29.76,North,-999,1.0,3.0,92,0.00,,,0.00,weatherlink.com 1.10,2013-01-19 10:51:00,
2013-01-19 05:06:00,26.2,24.0,29.75,North,-999,2.0,2.0,92,0.00,,,0.00,weatherlink.com 1.10,2013-01-19 11:06:00,
2013-01-19 06:52:00,23.9,23.0,29.74,North,-999,4.0,6.0,95,0.00,,,0.00,weatherlink.com 1.10,2013-01-19 12:52:00,
2013-01-19 07:07:00,24.4,23.0,29.74,North,-999,3.0,3.0,95,0.00,,,0.00,weatherlink.com 1.10,2013-01-19 13:07:00,
2013-01-19 07:23:00,24.8,24.0,29.74,North,-999,4.0,4.0,95,0.00,,,0.00,weatherlink.com 1.10,2013-01-19 13:23:00,
2013-01-19 07:38:00,26.2,25.0,29.74,North,-999,7.0,7.0,95,0.00,,,0.00,weatherlink.com 1.10,2013-01-19 13:38:00,
2013-01-19 07:54:00,27.3,25.0,29.74,North,-999,5.0,8.0,92,0.00,,,0.00,weatherlink.com 1.10,2013-01-19 13:54:00,
2013-01-19 08:08:00,27.5,25.0,29.75,North,-999,6.0,8.0,91,0.00,,,0.00,weatherlink.com 1.10,2013-01-19 14:08:00,
2013-01-19 08:23:00,27.5,25.0,29.75,North,-999,5.0,6.0,90,0.00,,,0.00,weatherlink.com 1.10,2013-01-19 14:23:00,
2013-01-19 08:38:00,28.5,26.0,29.75,North,-999,5.0,8.0,90,0.00,,,0.00,weatherlink.com 1.10,2013-01-19 14:38:00,
2013-01-19 08:53:00,30.8,27.0,29.76,North,-999,6.0,13.0,86,0.00,,,0.00,weatherlink.com 1.10,2013-01-19 14:53:00,
2013-01-19 09:09:00,32.1,28.0,29.77,North,-999,10.0,12.0,83,0.00,,,0.00,weatherlink.com 1.10,2013-01-19 15:09:00,
2013-01-19 09:24:00,32.7,28.0,29.77,North,-999,7.0,13.0,81,0.00,,,0.00,weatherlink.com 1.10,2013-01-19 15:24:00,
2013-01-19 09:39:00,33.2,28.0,29.78,North,-999,6.0,13.0,81,0.00,,,0.00,weatherlink.com 1.10,2013-01-19 15:39:00,
2013-01-19 09:54:00,34.0,29.0,29.79,North,-999,0.0,12.0,81,0.00,,,0.00,weatherlink.com 1.10,2013-01-19 15:54:00,
2013-01-19 10:09:00,37.1,28.0,29.80,North,-999,13.0,14.0,71,0.01,,,0.01,weatherlink.com 1.10,2013-01-19 16:09:00,
2013-01-19 10:24:00,34.9,28.0,29.80,North,-999,8.0,15.0,76,0.01,,,0.01,weatherlink.com 1.10,2013-01-19 16:24:00,
2013-01-19 10:39:00,34.8,28.0,29.81,North,-999,6.0,16.0,77,0.01,,,0.01,weatherlink.com 1.10,2013-01-19 16:39:00,
2013-01-19 10:54:00,35.3,28.0,29.80,North,-999,7.0,17.0,76,0.01,,,0.01,weatherlink.com 1.10,2013-01-19 16:54:00,
2013-01-19 11:09:00,35.5,29.0,29.80,North,-999,8.0,16.0,76,0.00,,,0.01,weatherlink.com 1.10,2013-01-19 17:09:00,
2013-01-19 11:24:00,35.5,29.0,29.80,North,-999,4.0,12.0,76,0.00,,,0.01,weatherlink.com 1.10,2013-01-19 17:24:00,
2013-01-19 11:39:00,35.3,28.0,29.79,North,-999,12.0,17.0,76,0.00,,,0.01,weatherlink.com 1.10,2013-01-19 17:39:00,
2013-01-19 12:09:00,36.0,29.0,29.79,North,-999,8.0,24.0,76,0.00,,,0.01,weatherlink.com 1.10,2013-01-19 18:09:00,
2013-01-19 12:24:00,36.4,30.0,29.79,North,-999,15.0,18.0,76,0.00,,,0.01,weatherlink.com 1.10,2013-01-19 18:24:00,
2013-01-19 12:54:00,36.3,29.0,29.79,North,-999,16.0,19.0,75,0.00,,,0.01,weatherlink.com 1.10,2013-01-19 18:54:00,
2013-01-19 13:09:00,35.8,29.0,29.79,North,-999,10.0,23.0,77,0.00,,,0.01,weatherlink.com 1.10,2013-01-19 19:09:00,
2013-01-19 13:24:00,35.7,29.0,29.79,North,-999,16.0,22.0,78,0.00,,,0.01,weatherlink.com 1.10,2013-01-19 19:24:00,
2013-01-19 13:40:00,31.0,24.0,29.83,North,-999,14.0,31.0,76,0.00,,,0.01,weatherlink.com 1.10,2013-01-19 19:40:00,
2013-01-19 13:54:00,27.9,20.0,29.84,North,-999,12.0,30.0,73,0.00,,,0.01,weatherlink.com 1.10,2013-01-19 19:54:00,
2013-01-19 14:10:00,25.9,17.0,29.86,North,-999,9.0,32.0,70,0.00,,,0.01,weatherlink.com 1.10,2013-01-19 20:10:00,
2013-01-19 14:55:00,17.3,8.0,29.91,North,-999,13.0,32.0,66,0.00,,,0.01,weatherlink.com 1.10,2013-01-19 20:55:00,
2013-01-19 15:11:00,16.8,8.0,29.93,North,-999,13.0,31.0,68,0.00,,,0.01,weatherlink.com 1.10,2013-01-19 21:11:00,
2013-01-19 15:25:00,15.7,5.0,29.95,North,-999,16.0,34.0,63,0.00,,,0.01,weatherlink.com 1.10,2013-01-19 21:25:00,
2013-01-19 16:27:00,12.6,4.0,30.00,North,-999,13.0,30.0,68,0.00,,,0.01,weatherlink.com 1.10,2013-01-19 22:27:00,
2013-01-19 16:41:00,11.9,3.0,30.02,North,-999,9.0,26.0,67,0.00,,,0.01,weatherlink.com 1.10,2013-01-19 22:41:00,
2013-01-19 16:57:00,10.3,3.0,30.04,North,-999,10.0,35.0,72,0.00,,,0.01,weatherlink.com 1.10,2013-01-19 22:57:00,
2013-01-19 17:12:00,9.0,-1.0,30.06,North,-999,23.0,32.0,64,0.00,,,0.01,weatherlink.com 1.10,2013-01-19 23:12:00,
2013-01-19 17:27:00,8.1,-4.0,30.08,North,-999,21.0,32.0,59,0.00,,,0.01,weatherlink.com 1.10,2013-01-19 23:27:00,
2013-01-19 17:58:00,6.8,-2.0,30.10,North,-999,7.0,22.0,66,0.00,,,0.01,weatherlink.com 1.10,2013-01-19 23:58:00,
2013-01-19 18:13:00,6.2,-3.0,30.12,North,-999,8.0,27.0,67,0.00,,,0.01,weatherlink.com 1.10,2013-01-20 00:13:00,
2013-01-19 18:43:00,4.7,-4.0,30.15,North,-999,10.0,22.0,66,0.00,,,0.01,weatherlink.com 1.10,2013-01-20 00:43:00,
2013-01-19 18:59:00,3.3,-5.0,30.17,North,-999,18.0,25.0,68,0.00,,,0.01,weatherlink.com 1.10,2013-01-20 00:59:00,
2013-01-19 19:13:00,2.9,-6.0,30.18,North,-999,10.0,23.0,67,0.00,,,0.01,weatherlink.com 1.10,2013-01-20 01:13:00,
2013-01-19 19:29:00,2.4,-7.0,30.19,North,-999,16.0,24.0,66,0.00,,,0.01,weatherlink.com 1.10,2013-01-20 01:29:00,
2013-01-19 19:43:00,2.1,-6.0,30.20,North,-999,13.0,25.0,68,0.00,,,0.01,weatherlink.com 1.10,2013-01-20 01:43:00,
2013-01-19 19:58:00,1.8,-7.0,30.21,North,-999,13.0,22.0,68,0.00,,,0.01,weatherlink.com 1.10,2013-01-20 01:58:00,
2013-01-19 20:14:00,1.3,-7.0,30.22,North,-999,8.0,21.0,69,0.00,,,0.01,weatherlink.com 1.10,2013-01-20 02:14:00,
2013-01-19 20:28:00,1.0,-7.0,30.23,North,-999,4.0,20.0,70,0.00,,,0.01,weatherlink.com 1.10,2013-01-20 02:28:00,
2013-01-19 20:43:00,0.7,-7.0,30.24,North,-999,1.0,15.0,71,0.00,,,0.01,weatherlink.com 1.10,2013-01-20 02:43:00,
2013-01-19 20:59:00,0.7,-6.0,30.24,North,-999,3.0,16.0,73,0.00,,,0.01,weatherlink.com 1.10,2013-01-20 02:59:00,
2013-01-19 21:29:00,0.5,-6.0,30.27,North,-999,6.0,16.0,75,0.00,,,0.01,weatherlink.com 1.10,2013-01-20 03:29:00,
2013-01-19 21:44:00,0.3,-6.0,30.28,North,-999,10.0,15.0,76,0.00,,,0.01,weatherlink.com 1.10,2013-01-20 03:44:00,
2013-01-19 21:59:00,0.3,-6.0,30.29,North,-999,4.0,20.0,73,0.00,,,0.01,weatherlink.com 1.10,2013-01-20 03:59:00,
2013-01-19 22:14:00,0.2,-7.0,30.29,North,-999,6.0,14.0,70,0.00,,,0.01,weatherlink.com 1.10,2013-01-20 04:14:00,
2013-01-19 22:29:00,-0.1,-8.0,30.29,North,-999,3.0,14.0,70,0.00,,,0.01,weatherlink.com 1.10,2013-01-20 04:29:00,
2013-01-19 22:44:00,-0.5,-8.0,30.29,North,-999,8.0,13.0,71,0.00,,,0.01,weatherlink.com 1.10,2013-01-20 04:44:00,
2013-01-19 23:14:00,-1.1,-9.0,30.29,North,-999,11.0,17.0,70,0.00,,,0.01,weatherlink.com 1.10,2013-01-20 05:14:00,
2013-01-19 23:29:00,-1.4,-9.0,30.31,North,-999,6.0,11.0,70,0.00,,,0.01,weatherlink.com 1.10,2013-01-20 05:29:00,
2013-01-19 23:48:00,-1.5,-9.0,30.33,North,-999,7.0,14.0,72,0.00,,,0.01,weatherlink.com 1.10,2013-01-20 05:48:00,
2013-01-19 23:59:00,-1.7,-9.0,30.34,North,-999,11.0,14.0,71,0.00,,,0.01,weatherlink.com 1.10,2013-01-20 05:59:00,